createdAt,value
2022-08-04T00:02:33.840Z,13.05
2022-08-04T00:05:05.467Z,13.00
2022-08-04T00:07:51.143Z,12.94
2022-08-04T00:10:20.498Z,12.96
2022-08-04T00:12:50.168Z,12.93
2022-08-04T00:15:18.136Z,12.92
2022-08-04T00:17:49.281Z,12.93
2022-08-04T00:20:19.523Z,12.94
2022-08-04T00:22:48.717Z,12.98
2022-08-04T00:25:16.880Z,12.97
2022-08-04T00:27:44.101Z,12.99
2022-08-04T00:30:11.336Z,12.98
2022-08-04T00:32:41.511Z,12.95
2022-08-04T00:35:15.080Z,12.89
2022-08-04T00:37:44.885Z,12.87
2022-08-04T00:40:23.936Z,12.81
2022-08-04T00:43:10.668Z,12.71
2022-08-04T00:46:16.021Z,12.71
2022-08-04T00:48:41.587Z,12.68
2022-08-04T00:51:26.019Z,12.66
2022-08-04T00:54:11.583Z,12.65
2022-08-04T00:56:52.389Z,12.57
2022-08-04T01:00:03.876Z,12.50
2022-08-04T01:02:49.577Z,12.49
2022-08-04T01:06:00.105Z,12.39
2022-08-04T01:08:34.673Z,12.37
2022-08-04T01:11:31.847Z,12.31
2022-08-04T01:13:58.632Z,12.27
2022-08-04T01:16:27.208Z,12.27
2022-08-04T01:19:01.161Z,12.23
2022-08-04T01:21:31.034Z,12.21
2022-08-04T01:24:16.674Z,12.20
2022-08-04T01:26:57.647Z,12.14
2022-08-04T01:29:29.314Z,12.14
2022-08-04T01:32:26.079Z,12.16
2022-08-04T01:35:47.224Z,12.18
2022-08-04T01:38:21.636Z,12.25
2022-08-04T01:40:53.892Z,12.28
2022-08-04T01:43:21.700Z,12.34
2022-08-04T01:45:51.601Z,12.37
2022-08-04T01:48:25.152Z,12.42
2022-08-04T01:50:54.366Z,12.47
2022-08-04T01:53:21.605Z,12.50
2022-08-04T01:55:55.339Z,12.51
2022-08-04T01:58:24.889Z,12.50
2022-08-04T02:01:08.602Z,12.45
2022-08-04T02:04:18.104Z,12.41
2022-08-04T02:06:58.333Z,12.37
2022-08-04T02:09:54.502Z,12.31
2022-08-04T02:12:33.313Z,12.30
2022-08-04T02:15:07.981Z,12.26
2022-08-04T02:17:46.505Z,12.22
2022-08-04T02:20:23.321Z,12.17
2022-08-04T02:22:59.701Z,12.14
2022-08-04T02:25:29.683Z,12.13
2022-08-04T02:28:20.842Z,12.07
2022-08-04T02:31:16.412Z,12.02
2022-08-04T02:33:53.943Z,11.94
2022-08-04T02:36:34.865Z,11.89
2022-08-04T02:39:04.830Z,11.83
2022-08-04T02:41:33.651Z,11.79
2022-08-04T02:44:03.826Z,11.72
2022-08-04T02:46:32.347Z,11.67
2022-08-04T02:49:03.148Z,11.62
2022-08-04T02:51:35.810Z,11.62
2022-08-04T02:54:05.599Z,11.58
2022-08-04T02:56:34.642Z,11.56
2022-08-04T02:59:07.903Z,11.52
2022-08-04T03:01:35.281Z,11.53
2022-08-04T03:04:24.547Z,11.53
2022-08-04T03:06:52.285Z,11.49
2022-08-04T03:09:25.205Z,11.52
2022-08-04T03:12:03.956Z,11.55
2022-08-04T03:14:58.581Z,11.60
2022-08-04T03:17:56.179Z,11.70
2022-08-04T03:20:51.093Z,11.82
2022-08-04T03:23:36.795Z,11.94
2022-08-04T03:26:09.802Z,12.03
2022-08-04T03:28:51.967Z,12.08
2022-08-04T03:31:42.663Z,12.08
2022-08-04T03:34:37.523Z,12.09
2022-08-04T03:37:23.367Z,12.09
2022-08-04T03:40:24.125Z,12.07
2022-08-04T03:43:10.336Z,12.06
2022-08-04T03:46:23.405Z,12.10
2022-08-04T03:49:12.909Z,12.15
2022-08-04T03:52:17.103Z,12.14
2022-08-04T03:55:19.777Z,12.25
2022-08-04T03:57:52.570Z,12.42
2022-08-04T04:00:22.017Z,12.59
2022-08-04T04:03:12.045Z,12.73
2022-08-04T04:06:15.562Z,12.96
2022-08-04T04:09:06.724Z,13.14
2022-08-04T04:12:09.443Z,13.35
2022-08-04T04:14:55.156Z,13.59
2022-08-04T04:17:37.358Z,13.78
2022-08-04T04:20:21.940Z,13.99
2022-08-04T04:23:12.359Z,14.15
2022-08-04T04:25:43.461Z,14.32
2022-08-04T04:28:45.023Z,14.51
2022-08-04T04:31:43.836Z,14.72
2022-08-04T04:34:10.909Z,14.97
2022-08-04T04:37:10.026Z,15.24
2022-08-04T04:40:10.399Z,15.58
2022-08-04T04:43:09.812Z,15.90
2022-08-04T04:45:42.798Z,16.19
2022-08-04T04:48:32.341Z,16.44
2022-08-04T04:51:05.446Z,16.73
2022-08-04T04:54:00.599Z,17.17
2022-08-04T04:56:44.209Z,17.53
2022-08-04T04:59:15.723Z,17.70
2022-08-04T05:02:13.019Z,17.85
2022-08-04T05:05:21.533Z,18.16
2022-08-04T05:07:58.622Z,18.54
2022-08-04T05:11:03.045Z,18.93
2022-08-04T05:14:36.651Z,19.29
2022-08-04T05:16:32.497Z,19.72
2022-08-04T05:19:28.833Z,20.14
2022-08-04T05:22:13.908Z,20.72
2022-08-04T05:24:45.321Z,21.37
2022-08-04T05:27:19.629Z,22.04
2022-08-04T05:29:56.821Z,22.64
2022-08-04T05:32:32.884Z,23.10
2022-08-04T05:35:09.515Z,23.58
2022-08-04T05:37:39.159Z,23.94
2022-08-04T05:40:08.720Z,24.23
2022-08-04T05:42:39.821Z,24.55
2022-08-04T05:45:08.883Z,24.88
2022-08-04T05:47:37.349Z,25.16
2022-08-04T05:50:06.137Z,25.35
2022-08-04T05:52:36.549Z,25.64
2022-08-04T05:55:04.796Z,25.87
2022-08-04T05:57:33.051Z,26.05
2022-08-04T06:00:19.541Z,26.41
2022-08-04T06:02:52.985Z,26.77
2022-08-04T06:05:20.454Z,27.27
2022-08-04T06:08:07.718Z,27.94
2022-08-04T06:10:38.578Z,28.64
2022-08-04T06:13:45.330Z,29.26
2022-08-04T06:16:02.815Z,29.89
2022-08-04T06:18:35.333Z,30.37
2022-08-04T06:21:22.714Z,30.45
2022-08-04T06:23:53.620Z,30.54
2022-08-04T06:26:30.173Z,30.59
2022-08-04T06:28:58.070Z,30.51
2022-08-04T06:32:30.605Z,30.35
2022-08-04T06:34:35.305Z,30.34
2022-08-04T06:37:03.526Z,30.47
2022-08-04T06:39:33.192Z,30.77
2022-08-04T06:42:21.737Z,31.41
2022-08-04T06:44:52.021Z,32.14
2022-08-04T06:47:21.581Z,32.83
2022-08-04T06:51:31.939Z,33.02
2022-08-04T06:52:40.129Z,33.14
2022-08-04T06:55:08.323Z,33.59
2022-08-04T06:57:36.890Z,34.10
2022-08-04T07:00:06.388Z,34.15
2022-08-04T07:02:38.972Z,34.30
2022-08-04T07:05:08.614Z,34.58
2022-08-04T07:07:36.976Z,34.77
2022-08-04T07:10:25.129Z,34.90
2022-08-04T07:12:53.009Z,34.66
2022-08-04T07:15:22.715Z,34.99
2022-08-04T07:17:52.247Z,35.30
2022-08-04T07:20:34.103Z,35.43
2022-08-04T07:23:06.499Z,35.31
2022-08-04T07:26:00.278Z,35.52
2022-08-04T07:28:27.563Z,35.46
2022-08-04T07:30:56.052Z,34.89
2022-08-04T07:33:24.685Z,34.64
2022-08-04T07:36:04.928Z,33.95
2022-08-04T07:38:48.234Z,34.46
2022-08-04T07:41:42.510Z,34.95
2022-08-04T07:44:14.469Z,35.47
2022-08-04T07:46:42.985Z,36.14
2022-08-04T07:49:09.901Z,36.11
2022-08-04T07:51:37.449Z,36.08
2022-08-04T07:54:06.244Z,35.72
2022-08-04T07:56:38.061Z,35.80
2022-08-04T07:59:06.407Z,35.43
2022-08-04T08:01:35.068Z,34.44
2022-08-04T08:04:03.101Z,34.61
2022-08-04T08:06:33.248Z,34.20
2022-08-04T08:09:13.576Z,34.20
2022-08-04T08:12:35.252Z,34.64
2022-08-04T08:14:35.583Z,35.09
2022-08-04T08:17:03.519Z,35.45
2022-08-04T08:19:32.821Z,35.83
2022-08-04T08:22:01.452Z,36.64
2022-08-04T08:24:31.168Z,37.53
2022-08-04T08:27:00.459Z,36.91
2022-08-04T08:29:29.807Z,36.50
2022-08-04T08:32:02.688Z,36.08
2022-08-04T08:34:33.023Z,35.89
2022-08-04T08:37:45.261Z,35.89
2022-08-04T08:40:41.106Z,36.00
2022-08-04T08:44:00.629Z,35.47
2022-08-04T08:46:49.496Z,36.22
2022-08-04T08:50:00.764Z,36.90
2022-08-04T08:53:01.036Z,37.37
2022-08-04T08:55:52.383Z,37.89
2022-08-04T08:58:29.505Z,37.63
2022-08-04T09:01:08.694Z,37.06
2022-08-04T09:04:04.974Z,37.21
2022-08-04T09:06:48.541Z,37.52
2022-08-04T09:09:36.607Z,37.73
2022-08-04T09:12:19.198Z,37.34
2022-08-04T09:15:05.626Z,37.21
2022-08-04T09:17:42.275Z,37.63
2022-08-04T09:20:27.818Z,37.76
2022-08-04T09:23:08.113Z,37.70
2022-08-04T09:25:42.818Z,37.60
2022-08-04T09:28:50.816Z,37.14
2022-08-04T09:31:15.316Z,36.45
2022-08-04T09:33:51.655Z,36.32
2022-08-04T09:36:46.557Z,36.25
2022-08-04T09:39:59.878Z,36.14
2022-08-04T09:42:46.033Z,35.13
2022-08-04T09:45:42.590Z,34.22
2022-08-04T09:48:32.611Z,33.58
2022-08-04T09:51:00.245Z,33.50
2022-08-04T09:53:51.503Z,33.35
2022-08-04T09:56:26.911Z,33.68
2022-08-04T09:59:24.282Z,33.90
2022-08-04T10:01:59.949Z,34.08
2022-08-04T10:04:31.198Z,34.42
2022-08-04T10:07:07.446Z,34.32
2022-08-04T10:09:55.839Z,34.53
2022-08-04T10:12:44.916Z,34.78
2022-08-04T10:15:20.925Z,35.16
2022-08-04T10:18:00.665Z,35.31
2022-08-04T10:20:59.004Z,35.32
2022-08-04T10:24:07.697Z,35.63
2022-08-04T10:26:49.101Z,35.96
2022-08-04T10:29:39.205Z,36.00
2022-08-04T10:32:36.944Z,35.64
2022-08-04T10:35:15.986Z,35.79
2022-08-04T10:38:06.455Z,36.04
2022-08-04T10:40:45.583Z,36.51
2022-08-04T10:43:50.773Z,37.27
2022-08-04T10:46:26.379Z,37.82
2022-08-04T10:49:10.330Z,37.86
2022-08-04T10:52:11.410Z,37.57
2022-08-04T10:55:21.599Z,36.97
2022-08-04T10:58:04.511Z,37.01
2022-08-04T11:00:35.848Z,36.61
2022-08-04T11:03:25.367Z,35.82
2022-08-04T11:06:00.802Z,36.05
2022-08-04T11:08:39.013Z,36.71
2022-08-04T11:11:13.254Z,37.47
2022-08-04T11:14:07.025Z,38.35
2022-08-04T11:16:43.230Z,38.42
2022-08-04T11:19:13.139Z,38.67
2022-08-04T11:21:45.093Z,38.28
2022-08-04T11:24:22.952Z,37.73
2022-08-04T11:27:20.177Z,37.50
2022-08-04T11:30:13.225Z,37.61
2022-08-04T11:32:59.391Z,37.84
2022-08-04T11:35:35.676Z,37.88
2022-08-04T11:38:12.763Z,38.31
2022-08-04T11:40:57.692Z,39.12
2022-08-04T11:44:03.175Z,39.46
2022-08-04T11:46:53.345Z,39.27
2022-08-04T11:49:56.857Z,38.94
2022-08-04T11:52:23.008Z,38.61
2022-08-04T11:54:52.711Z,37.98
2022-08-04T11:57:36.324Z,37.27
2022-08-04T12:00:13.419Z,36.16
2022-08-04T12:03:12.079Z,36.03
2022-08-04T12:06:03.771Z,35.75
2022-08-04T12:08:51.898Z,35.45
2022-08-04T12:11:28.636Z,35.29
2022-08-04T12:14:10.338Z,35.31
2022-08-04T12:17:05.102Z,35.40
2022-08-04T12:20:03.755Z,35.74
2022-08-04T12:22:37.077Z,35.56
2022-08-04T12:25:09.835Z,35.18
2022-08-04T12:27:49.548Z,34.80
2022-08-04T12:30:59.730Z,34.35
2022-08-04T12:33:12.873Z,33.91
2022-08-04T12:36:10.130Z,33.90
2022-08-04T12:38:48.699Z,33.69
2022-08-04T12:41:23.682Z,33.27
2022-08-04T12:43:51.148Z,33.24
2022-08-04T12:46:22.745Z,33.35
2022-08-04T12:48:50.795Z,33.53
2022-08-04T12:52:06.617Z,33.49
2022-08-04T12:54:10.355Z,33.09
2022-08-04T12:56:39.013Z,32.72
2022-08-04T12:59:12.732Z,32.53
2022-08-04T13:02:09.426Z,32.35
2022-08-04T13:04:36.456Z,32.29
2022-08-04T13:07:10.009Z,32.24
2022-08-04T13:09:38.302Z,31.94
2022-08-04T13:12:12.444Z,31.67
2022-08-04T13:14:44.639Z,31.62
2022-08-04T13:17:12.427Z,31.62
2022-08-04T13:19:41.838Z,31.36
2022-08-04T13:22:09.419Z,30.97
2022-08-04T13:24:56.939Z,30.69
2022-08-04T13:27:26.832Z,30.43
2022-08-04T13:30:00.602Z,30.30
2022-08-04T13:32:31.769Z,30.29
2022-08-04T13:35:01.956Z,30.31
2022-08-04T13:37:39.460Z,30.39
2022-08-04T13:40:10.136Z,30.61
2022-08-04T13:42:39.094Z,30.73
2022-08-04T13:45:07.405Z,30.52
2022-08-04T13:47:38.329Z,30.56
2022-08-04T13:50:23.653Z,30.69
2022-08-04T13:52:55.732Z,30.82
2022-08-04T13:55:28.588Z,30.81
2022-08-04T13:58:24.381Z,30.71
2022-08-04T14:00:58.702Z,30.62
2022-08-04T14:03:32.603Z,30.35
2022-08-04T14:06:13.580Z,30.03
2022-08-04T14:09:15.515Z,29.77
2022-08-04T14:12:10.893Z,29.82
2022-08-04T14:14:54.256Z,30.00
2022-08-04T14:17:29.833Z,30.20
2022-08-04T14:20:00.719Z,30.41
2022-08-04T14:22:28.988Z,30.46
2022-08-04T14:25:05.098Z,30.31
2022-08-04T14:27:47.648Z,30.00
2022-08-04T14:30:26.803Z,29.81
2022-08-04T14:32:59.363Z,29.66
2022-08-04T14:35:57.481Z,29.55
2022-08-04T14:38:24.720Z,29.53
2022-08-04T14:41:02.789Z,29.48
2022-08-04T14:43:30.107Z,29.34
2022-08-04T14:46:05.158Z,29.24
2022-08-04T14:48:32.262Z,29.28
2022-08-04T14:50:59.169Z,29.42
2022-08-04T14:53:29.443Z,29.49
2022-08-04T14:55:59.065Z,29.59
2022-08-04T14:58:39.009Z,29.56
2022-08-04T15:01:11.756Z,29.54
2022-08-04T15:03:50.453Z,29.57
2022-08-04T15:06:28.690Z,29.66
2022-08-04T15:09:00.374Z,29.75
2022-08-04T15:11:28.712Z,29.81
2022-08-04T15:13:56.784Z,29.73
2022-08-04T15:16:26.231Z,29.57
2022-08-04T15:18:56.887Z,29.40
2022-08-04T15:21:28.293Z,29.36
2022-08-04T15:23:57.337Z,29.29
2022-08-04T15:26:30.144Z,29.20
2022-08-04T15:29:05.523Z,29.10
2022-08-04T15:32:03.815Z,28.91
2022-08-04T15:34:26.229Z,28.78
2022-08-04T15:36:57.110Z,28.72
2022-08-04T15:39:45.262Z,28.60
2022-08-04T15:42:34.619Z,28.56
2022-08-04T15:45:20.970Z,28.54
2022-08-04T15:48:03.231Z,28.53
2022-08-04T15:50:31.122Z,28.53
2022-08-04T15:53:00.975Z,28.45
2022-08-04T15:55:38.521Z,28.37
2022-08-04T15:58:10.889Z,28.29
2022-08-04T16:00:49.888Z,28.22
2022-08-04T16:03:58.447Z,28.17
2022-08-04T16:06:27.512Z,28.10
2022-08-04T16:09:04.936Z,28.02
2022-08-04T16:11:33.108Z,28.01
2022-08-04T16:14:03.027Z,27.96
2022-08-04T16:16:39.720Z,27.94
2022-08-04T16:19:08.441Z,27.94
2022-08-04T16:21:47.071Z,27.96
2022-08-04T16:24:35.277Z,27.93
2022-08-04T16:27:03.855Z,27.90
2022-08-04T16:29:34.575Z,27.83
2022-08-04T16:32:04.715Z,27.77
2022-08-04T16:34:48.628Z,27.67
2022-08-04T16:37:19.312Z,27.51
2022-08-04T16:39:50.180Z,27.37
2022-08-04T16:42:30.415Z,27.35
2022-08-04T16:45:02.035Z,27.31
2022-08-04T16:47:47.280Z,27.27
2022-08-04T16:50:24.780Z,27.22
2022-08-04T16:52:53.981Z,27.18
2022-08-04T16:55:23.832Z,27.13
2022-08-04T16:57:52.580Z,27.06
2022-08-04T17:00:30.762Z,26.98
2022-08-04T17:02:58.025Z,26.93
2022-08-04T17:05:39.426Z,26.87
2022-08-04T17:10:56.330Z,26.59
2022-08-04T17:14:00.892Z,26.54
2022-08-04T17:16:23.887Z,26.44
2022-08-04T17:18:53.721Z,26.37
2022-08-04T17:21:23.940Z,26.28
2022-08-04T17:24:15.325Z,26.15
2022-08-04T17:26:41.415Z,25.97
2022-08-04T17:29:09.475Z,25.79
2022-08-04T17:31:38.177Z,25.62
2022-08-04T17:34:15.788Z,25.39
2022-08-04T17:36:44.000Z,25.21
2022-08-04T17:39:17.294Z,25.04
2022-08-04T17:41:48.657Z,24.89
2022-08-04T17:44:17.797Z,24.74
2022-08-04T17:46:48.396Z,24.55
2022-08-04T17:49:18.510Z,24.32
2022-08-04T17:52:05.579Z,24.04
2022-08-04T17:54:36.596Z,23.77
2022-08-04T17:57:20.227Z,23.54
2022-08-04T17:59:58.826Z,23.29
2022-08-04T18:02:33.093Z,23.05
2022-08-04T18:05:07.534Z,22.92
2022-08-04T18:08:39.151Z,22.70
2022-08-04T18:10:51.626Z,22.47
2022-08-04T18:13:27.322Z,22.36
2022-08-04T18:16:04.979Z,22.21
2022-08-04T18:18:33.270Z,22.02
2022-08-04T18:21:02.813Z,21.88
2022-08-04T18:23:32.802Z,21.71
2022-08-04T18:26:01.830Z,21.58
2022-08-04T18:28:30.825Z,21.44
2022-08-04T18:31:00.439Z,21.26
2022-08-04T18:33:40.677Z,21.15
2022-08-04T18:36:35.311Z,21.02
2022-08-04T18:39:13.010Z,20.81
2022-08-04T18:42:01.384Z,20.73
2022-08-04T18:44:52.307Z,20.61
2022-08-04T18:47:29.587Z,20.49
2022-08-04T18:50:59.886Z,20.38
2022-08-04T18:52:45.330Z,20.25
2022-08-04T18:55:55.690Z,20.16
2022-08-04T18:58:07.015Z,20.03
2022-08-04T19:00:35.025Z,19.87
2022-08-04T19:03:02.356Z,19.71
2022-08-04T19:05:37.732Z,19.58
2022-08-04T19:08:33.396Z,19.40
2022-08-04T19:10:59.888Z,19.25
2022-08-04T19:13:28.169Z,19.11
2022-08-04T19:15:55.155Z,19.04
2022-08-04T19:18:25.831Z,18.97
2022-08-04T19:20:55.541Z,18.87
2022-08-04T19:24:10.812Z,18.76
2022-08-04T19:26:23.796Z,18.66
2022-08-04T19:28:55.184Z,18.57
2022-08-04T19:31:28.401Z,18.47
2022-08-04T19:34:04.895Z,18.35
2022-08-04T19:36:34.726Z,18.28
2022-08-04T19:39:09.394Z,18.20
2022-08-04T19:42:05.194Z,18.10
2022-08-04T19:48:12.268Z,17.92
2022-08-04T19:50:04.645Z,17.83
2022-08-04T19:52:37.568Z,17.74
2022-08-04T19:55:09.806Z,17.69
2022-08-04T19:57:46.126Z,17.62
2022-08-04T20:00:32.808Z,17.53
2022-08-04T20:03:00.830Z,17.48
2022-08-04T20:05:52.933Z,17.41
2022-08-04T20:08:15.434Z,17.36
2022-08-04T20:10:51.579Z,17.31
2022-08-04T20:13:20.848Z,17.25
2022-08-04T20:15:57.431Z,17.24
2022-08-04T20:18:36.763Z,17.21
2022-08-04T20:21:18.919Z,17.23
2022-08-04T20:23:48.413Z,17.24
2022-08-04T20:26:17.313Z,17.28
2022-08-04T20:28:45.957Z,17.30
2022-08-04T20:31:19.007Z,17.29
2022-08-04T20:33:49.333Z,17.27
2022-08-04T20:36:23.088Z,17.28
2022-08-04T20:38:54.635Z,17.27
2022-08-04T20:41:22.398Z,17.25
2022-08-04T20:43:50.261Z,17.25
2022-08-04T20:46:29.354Z,17.25
2022-08-04T20:48:58.361Z,17.22
2022-08-04T20:51:31.960Z,17.20
2022-08-04T20:54:16.763Z,17.17
2022-08-04T20:56:50.726Z,17.14
2022-08-04T20:59:19.758Z,17.14
2022-08-04T21:01:49.446Z,17.11
2022-08-04T21:04:34.701Z,17.09
2022-08-04T21:07:11.215Z,17.02
2022-08-04T21:09:50.019Z,17.00
2022-08-04T21:12:27.378Z,16.99
2022-08-04T21:15:14.090Z,16.94
2022-08-04T21:17:58.385Z,16.91
2022-08-04T21:20:31.593Z,16.87
2022-08-04T21:23:02.004Z,16.81
2022-08-04T21:25:30.875Z,16.79
2022-08-04T21:27:58.529Z,16.77
2022-08-04T21:30:26.848Z,16.75
2022-08-04T21:32:55.063Z,16.74
2022-08-04T21:38:16.517Z,16.70
2022-08-04T21:40:55.539Z,16.68
2022-08-04T21:46:11.415Z,16.56
2022-08-04T21:48:39.456Z,16.51
2022-08-04T21:51:58.807Z,16.43
2022-08-04T21:54:09.616Z,16.38
2022-08-04T21:56:41.948Z,16.35
2022-08-04T21:59:30.628Z,16.28
2022-08-04T22:02:00.099Z,16.13
2022-08-04T22:04:36.639Z,16.14
2022-08-04T22:07:04.699Z,16.12
2022-08-04T22:09:38.484Z,16.11
2022-08-04T22:12:10.373Z,16.10
2022-08-04T22:14:39.522Z,16.08
2022-08-04T22:17:06.573Z,16.09
2022-08-04T22:19:56.009Z,16.04
2022-08-04T22:22:26.215Z,15.99
2022-08-04T22:25:01.420Z,15.95
2022-08-04T22:27:47.345Z,15.90
2022-08-04T22:30:17.076Z,15.86
2022-08-04T22:32:47.030Z,15.84
2022-08-04T22:35:36.629Z,15.73
2022-08-04T22:38:06.715Z,15.73
2022-08-04T22:40:38.619Z,15.72
2022-08-04T22:43:31.398Z,15.62
2022-08-04T22:45:52.508Z,15.66
2022-08-04T22:48:20.535Z,15.67
2022-08-04T22:50:47.752Z,15.65
2022-08-04T22:53:17.947Z,15.63
2022-08-04T22:56:07.543Z,15.63
2022-08-04T22:58:32.660Z,15.60
2022-08-04T23:01:01.099Z,15.56
2022-08-04T23:03:37.665Z,15.54
2022-08-04T23:06:11.748Z,15.49
2022-08-04T23:08:43.213Z,15.45
2022-08-04T23:11:14.690Z,15.41
2022-08-04T23:13:42.077Z,15.35
2022-08-04T23:16:10.595Z,15.33
2022-08-04T23:18:40.109Z,15.29
2022-08-04T23:21:10.355Z,15.27
2022-08-04T23:23:55.470Z,15.22
2022-08-04T23:26:27.765Z,15.16
2022-08-04T23:28:56.613Z,15.14
2022-08-04T23:31:24.644Z,15.13
2022-08-04T23:33:52.356Z,15.14
2022-08-04T23:36:29.936Z,15.11
2022-08-04T23:39:04.216Z,15.08
2022-08-04T23:41:53.479Z,15.07
2022-08-04T23:44:24.888Z,15.04
2022-08-04T23:47:01.028Z,15.01
2022-08-04T23:49:44.214Z,15.00
2022-08-04T23:52:27.621Z,14.95
2022-08-04T23:55:00.254Z,14.91
2022-08-04T23:57:30.832Z,14.90
